sensor_id;sensor_type;location;lat;lon;timestamp;temperature;humidity
11284;DHT22;5698;47.332;11.180;2023-05-17T00:01:47;4.60;99.90
11284;DHT22;5698;47.332;11.180;2023-05-17T00:04:14;4.50;99.90
11284;DHT22;5698;47.332;11.180;2023-05-17T00:06:42;4.50;99.90
11284;DHT22;5698;47.332;11.180;2023-05-17T00:09:10;4.40;99.90
11284;DHT22;5698;47.332;11.180;2023-05-17T00:11:37;4.40;99.90
11284;DHT22;5698;47.332;11.180;2023-05-17T00:14:04;4.30;99.90
11284;DHT22;5698;47.332;11.180;2023-05-17T00:16:31;4.30;99.90
11284;DHT22;5698;47.332;11.180;2023-05-17T00:18:58;4.30;99.90
11284;DHT22;5698;47.332;11.180;2023-05-17T00:21:25;4.20;99.90
11284;DHT22;5698;47.332;11.180;2023-05-17T00:23:52;4.20;99.90
11284;DHT22;5698;47.332;11.180;2023-05-17T00:26:21;4.10;99.90
11284;DHT22;5698;47.332;11.180;2023-05-17T00:28:48;4.10;99.90
11284;DHT22;5698;47.332;11.180;2023-05-17T00:31:15;4.10;99.90
11284;DHT22;5698;47.332;11.180;2023-05-17T00:33:42;4.10;99.90
11284;DHT22;5698;47.332;11.180;2023-05-17T00:36:09;4.00;99.90
11284;DHT22;5698;47.332;11.180;2023-05-17T00:38:35;4.00;99.90
11284;DHT22;5698;47.332;11.180;2023-05-17T00:41:02;3.90;99.90
11284;DHT22;5698;47.332;11.180;2023-05-17T00:43:31;3.90;99.90
11284;DHT22;5698;47.332;11.180;2023-05-17T00:45:58;3.80;99.90
11284;DHT22;5698;47.332;11.180;2023-05-17T00:48:25;3.80;99.90
11284;DHT22;5698;47.332;11.180;2023-05-17T00:50:54;3.80;99.90
11284;DHT22;5698;47.332;11.180;2023-05-17T00:53:22;3.70;99.90
11284;DHT22;5698;47.332;11.180;2023-05-17T00:55:49;3.70;99.90
11284;DHT22;5698;47.332;11.180;2023-05-17T00:58:16;3.60;99.90
11284;DHT22;5698;47.332;11.180;2023-05-17T01:00:45;3.60;99.90
11284;DHT22;5698;47.332;11.180;2023-05-17T01:03:12;3.60;99.90
11284;DHT22;5698;47.332;11.180;2023-05-17T01:05:39;3.50;99.90
11284;DHT22;5698;47.332;11.180;2023-05-17T01:08:06;3.50;99.90
11284;DHT22;5698;47.332;11.180;2023-05-17T01:10:40;3.50;99.90
11284;DHT22;5698;47.332;11.180;2023-05-17T01:13:12;3.40;99.90
11284;DHT22;5698;47.332;11.180;2023-05-17T01:15:47;3.40;99.90
11284;DHT22;5698;47.332;11.180;2023-05-17T01:18:22;3.40;99.90
11284;DHT22;5698;47.332;11.180;2023-05-17T01:20:52;3.30;99.90
11284;DHT22;5698;47.332;11.180;2023-05-17T01:23:30;3.30;99.90
11284;DHT22;5698;47.332;11.180;2023-05-17T01:26:06;3.20;99.90
11284;DHT22;5698;47.332;11.180;2023-05-17T01:28:36;3.20;99.90
11284;DHT22;5698;47.332;11.180;2023-05-17T01:31:04;3.20;99.90
11284;DHT22;5698;47.332;11.180;2023-05-17T01:33:31;3.20;99.90
11284;DHT22;5698;47.332;11.180;2023-05-17T01:35:59;3.10;99.90
11284;DHT22;5698;47.332;11.180;2023-05-17T01:38:26;3.10;99.90
11284;DHT22;5698;47.332;11.180;2023-05-17T01:40:57;3.00;99.90
11284;DHT22;5698;47.332;11.180;2023-05-17T01:43:31;3.00;99.90
11284;DHT22;5698;47.332;11.180;2023-05-17T01:46:10;3.00;99.90
11284;DHT22;5698;47.332;11.180;2023-05-17T01:48:39;3.00;99.90
11284;DHT22;5698;47.332;11.180;2023-05-17T01:51:08;3.00;99.90
11284;DHT22;5698;47.332;11.180;2023-05-17T01:53:38;3.00;99.90
11284;DHT22;5698;47.332;11.180;2023-05-17T01:56:09;3.00;99.90
11284;DHT22;5698;47.332;11.180;2023-05-17T01:58:45;3.00;99.90
11284;DHT22;5698;47.332;11.180;2023-05-17T02:01:17;2.90;99.90
11284;DHT22;5698;47.332;11.180;2023-05-17T02:03:47;3.00;99.90
11284;DHT22;5698;47.332;11.180;2023-05-17T02:06:15;2.90;99.90
11284;DHT22;5698;47.332;11.180;2023-05-17T02:08:42;2.90;99.90
11284;DHT22;5698;47.332;11.180;2023-05-17T02:11:09;3.00;99.90
11284;DHT22;5698;47.332;11.180;2023-05-17T02:13:36;2.90;99.90
11284;DHT22;5698;47.332;11.180;2023-05-17T02:16:03;2.90;99.90
11284;DHT22;5698;47.332;11.180;2023-05-17T02:18:32;2.90;99.90
11284;DHT22;5698;47.332;11.180;2023-05-17T02:21:02;2.90;99.90
11284;DHT22;5698;47.332;11.180;2023-05-17T02:23:29;2.90;99.90
11284;DHT22;5698;47.332;11.180;2023-05-17T02:25:56;2.90;99.90
11284;DHT22;5698;47.332;11.180;2023-05-17T02:28:23;2.80;99.90
11284;DHT22;5698;47.332;11.180;2023-05-17T02:30:50;2.80;99.90
11284;DHT22;5698;47.332;11.180;2023-05-17T02:33:17;2.70;99.90
11284;DHT22;5698;47.332;11.180;2023-05-17T02:35:48;2.70;99.90
11284;DHT22;5698;47.332;11.180;2023-05-17T02:38:15;2.70;99.90
11284;DHT22;5698;47.332;11.180;2023-05-17T02:40:42;2.70;99.90
11284;DHT22;5698;47.332;11.180;2023-05-17T02:43:09;2.70;99.90
11284;DHT22;5698;47.332;11.180;2023-05-17T02:45:35;2.70;99.90
11284;DHT22;5698;47.332;11.180;2023-05-17T02:48:03;2.60;99.90
11284;DHT22;5698;47.332;11.180;2023-05-17T02:50:30;2.50;99.90
11284;DHT22;5698;47.332;11.180;2023-05-17T02:52:58;2.50;99.90
11284;DHT22;5698;47.332;11.180;2023-05-17T02:55:25;2.50;99.90
11284;DHT22;5698;47.332;11.180;2023-05-17T02:57:52;2.50;99.90
11284;DHT22;5698;47.332;11.180;2023-05-17T03:00:19;2.60;99.90
11284;DHT22;5698;47.332;11.180;2023-05-17T03:02:46;2.40;99.90
11284;DHT22;5698;47.332;11.180;2023-05-17T03:05:13;2.40;99.90
11284;DHT22;5698;47.332;11.180;2023-05-17T03:07:40;2.40;99.90
11284;DHT22;5698;47.332;11.180;2023-05-17T03:10:09;2.30;99.90
11284;DHT22;5698;47.332;11.180;2023-05-17T03:12:36;2.30;99.90
11284;DHT22;5698;47.332;11.180;2023-05-17T03:15:04;2.30;99.90
11284;DHT22;5698;47.332;11.180;2023-05-17T03:17:31;2.30;99.90
11284;DHT22;5698;47.332;11.180;2023-05-17T03:19:58;2.30;99.90
11284;DHT22;5698;47.332;11.180;2023-05-17T03:22:25;2.40;99.90
11284;DHT22;5698;47.332;11.180;2023-05-17T03:24:52;2.40;99.90
11284;DHT22;5698;47.332;11.180;2023-05-17T03:27:21;2.40;99.90
11284;DHT22;5698;47.332;11.180;2023-05-17T03:29:48;2.50;99.90
11284;DHT22;5698;47.332;11.180;2023-05-17T03:32:15;2.40;99.90
11284;DHT22;5698;47.332;11.180;2023-05-17T03:34:42;2.50;99.90
11284;DHT22;5698;47.332;11.180;2023-05-17T03:37:09;2.50;99.90
11284;DHT22;5698;47.332;11.180;2023-05-17T03:39:36;2.50;99.90
11284;DHT22;5698;47.332;11.180;2023-05-17T03:42:03;2.50;99.90
11284;DHT22;5698;47.332;11.180;2023-05-17T03:44:31;2.40;99.90
11284;DHT22;5698;47.332;11.180;2023-05-17T03:46:58;2.50;99.90
11284;DHT22;5698;47.332;11.180;2023-05-17T03:49:25;2.40;99.90
11284;DHT22;5698;47.332;11.180;2023-05-17T03:51:52;2.40;99.90
11284;DHT22;5698;47.332;11.180;2023-05-17T03:54:19;2.40;99.90
11284;DHT22;5698;47.332;11.180;2023-05-17T03:56:46;2.40;99.90
11284;DHT22;5698;47.332;11.180;2023-05-17T03:59:15;2.40;99.90
11284;DHT22;5698;47.332;11.180;2023-05-17T04:01:43;2.40;99.90
11284;DHT22;5698;47.332;11.180;2023-05-17T04:04:10;2.40;99.90
11284;DHT22;5698;47.332;11.180;2023-05-17T04:06:38;2.40;99.90
11284;DHT22;5698;47.332;11.180;2023-05-17T04:09:05;2.40;99.90
11284;DHT22;5698;47.332;11.180;2023-05-17T04:11:34;2.40;99.90
11284;DHT22;5698;47.332;11.180;2023-05-17T04:14:03;2.50;99.90
11284;DHT22;5698;47.332;11.180;2023-05-17T04:16:30;2.50;99.90
11284;DHT22;5698;47.332;11.180;2023-05-17T04:18:59;2.50;99.90
11284;DHT22;5698;47.332;11.180;2023-05-17T04:21:27;2.50;99.90
11284;DHT22;5698;47.332;11.180;2023-05-17T04:23:54;2.50;99.90
11284;DHT22;5698;47.332;11.180;2023-05-17T04:26:21;2.50;99.90
11284;DHT22;5698;47.332;11.180;2023-05-17T04:28:48;2.50;99.90
11284;DHT22;5698;47.332;11.180;2023-05-17T04:31:15;2.50;99.90
11284;DHT22;5698;47.332;11.180;2023-05-17T04:33:42;2.50;99.90
11284;DHT22;5698;47.332;11.180;2023-05-17T04:36:11;2.50;99.90
11284;DHT22;5698;47.332;11.180;2023-05-17T04:38:38;2.50;99.90
11284;DHT22;5698;47.332;11.180;2023-05-17T04:41:05;2.50;99.90
11284;DHT22;5698;47.332;11.180;2023-05-17T04:43:34;2.50;99.90
11284;DHT22;5698;47.332;11.180;2023-05-17T04:46:01;2.50;99.90
11284;DHT22;5698;47.332;11.180;2023-05-17T04:48:30;2.50;99.90
11284;DHT22;5698;47.332;11.180;2023-05-17T04:50:59;2.50;99.90
11284;DHT22;5698;47.332;11.180;2023-05-17T04:53:28;2.50;99.90
11284;DHT22;5698;47.332;11.180;2023-05-17T04:55:55;2.50;99.90
11284;DHT22;5698;47.332;11.180;2023-05-17T04:58:22;2.60;99.90
11284;DHT22;5698;47.332;11.180;2023-05-17T05:00:49;2.60;99.90
11284;DHT22;5698;47.332;11.180;2023-05-17T05:03:17;2.60;99.90
11284;DHT22;5698;47.332;11.180;2023-05-17T05:05:44;2.70;99.90
11284;DHT22;5698;47.332;11.180;2023-05-17T05:08:11;2.70;99.90
11284;DHT22;5698;47.332;11.180;2023-05-17T05:10:39;2.70;99.90
11284;DHT22;5698;47.332;11.180;2023-05-17T05:13:06;2.70;99.90
11284;DHT22;5698;47.332;11.180;2023-05-17T05:15:33;2.70;99.90
11284;DHT22;5698;47.332;11.180;2023-05-17T05:18:00;2.70;99.90
11284;DHT22;5698;47.332;11.180;2023-05-17T05:20:27;2.70;99.90
11284;DHT22;5698;47.332;11.180;2023-05-17T05:22:54;2.70;99.90
11284;DHT22;5698;47.332;11.180;2023-05-17T05:25:23;2.70;99.90
11284;DHT22;5698;47.332;11.180;2023-05-17T05:27:51;2.70;99.90
11284;DHT22;5698;47.332;11.180;2023-05-17T05:30:18;2.70;99.90
11284;DHT22;5698;47.332;11.180;2023-05-17T05:32:47;2.70;99.90
11284;DHT22;5698;47.332;11.180;2023-05-17T05:35:15;2.70;99.90
11284;DHT22;5698;47.332;11.180;2023-05-17T05:37:43;2.70;99.90
11284;DHT22;5698;47.332;11.180;2023-05-17T05:40:11;2.70;99.90
11284;DHT22;5698;47.332;11.180;2023-05-17T05:42:38;2.80;99.90
11284;DHT22;5698;47.332;11.180;2023-05-17T05:45:08;2.80;99.90
11284;DHT22;5698;47.332;11.180;2023-05-17T05:47:35;2.80;99.90
11284;DHT22;5698;47.332;11.180;2023-05-17T05:50:04;2.80;99.90
11284;DHT22;5698;47.332;11.180;2023-05-17T05:52:31;2.80;99.90
11284;DHT22;5698;47.332;11.180;2023-05-17T05:54:58;2.90;99.90
11284;DHT22;5698;47.332;11.180;2023-05-17T05:57:25;2.90;99.90
11284;DHT22;5698;47.332;11.180;2023-05-17T05:59:52;2.90;99.90
11284;DHT22;5698;47.332;11.180;2023-05-17T06:02:20;3.00;99.90
11284;DHT22;5698;47.332;11.180;2023-05-17T06:04:47;3.00;99.90
11284;DHT22;5698;47.332;11.180;2023-05-17T06:07:14;3.00;99.90
11284;DHT22;5698;47.332;11.180;2023-05-17T06:09:41;3.00;99.90
11284;DHT22;5698;47.332;11.180;2023-05-17T06:12:08;3.10;99.90
11284;DHT22;5698;47.332;11.180;2023-05-17T06:14:35;3.10;99.90
11284;DHT22;5698;47.332;11.180;2023-05-17T06:17:03;3.20;99.90
11284;DHT22;5698;47.332;11.180;2023-05-17T06:19:31;3.20;99.90
11284;DHT22;5698;47.332;11.180;2023-05-17T06:21:58;3.30;99.90
11284;DHT22;5698;47.332;11.180;2023-05-17T06:24:25;3.30;99.90
11284;DHT22;5698;47.332;11.180;2023-05-17T06:26:52;3.40;99.90
11284;DHT22;5698;47.332;11.180;2023-05-17T06:29:19;3.40;99.90
11284;DHT22;5698;47.332;11.180;2023-05-17T06:31:47;3.40;99.90
11284;DHT22;5698;47.332;11.180;2023-05-17T06:34:14;3.40;99.90
11284;DHT22;5698;47.332;11.180;2023-05-17T06:36:42;3.50;99.90
11284;DHT22;5698;47.332;11.180;2023-05-17T06:39:09;3.50;99.90
11284;DHT22;5698;47.332;11.180;2023-05-17T06:41:36;3.50;99.90
11284;DHT22;5698;47.332;11.180;2023-05-17T06:44:04;3.50;99.90
11284;DHT22;5698;47.332;11.180;2023-05-17T06:46:31;3.60;99.90
11284;DHT22;5698;47.332;11.180;2023-05-17T06:48:58;3.60;99.90
11284;DHT22;5698;47.332;11.180;2023-05-17T06:51:25;3.60;99.90
11284;DHT22;5698;47.332;11.180;2023-05-17T06:53:53;3.60;99.90
11284;DHT22;5698;47.332;11.180;2023-05-17T06:56:20;3.70;99.90
11284;DHT22;5698;47.332;11.180;2023-05-17T06:58:47;3.70;99.90
11284;DHT22;5698;47.332;11.180;2023-05-17T07:01:14;3.80;99.90
11284;DHT22;5698;47.332;11.180;2023-05-17T07:03:41;3.80;99.90
11284;DHT22;5698;47.332;11.180;2023-05-17T07:06:08;3.80;99.90
11284;DHT22;5698;47.332;11.180;2023-05-17T07:08:35;3.80;99.90
11284;DHT22;5698;47.332;11.180;2023-05-17T07:11:04;3.90;99.90
11284;DHT22;5698;47.332;11.180;2023-05-17T07:13:32;3.90;99.90
11284;DHT22;5698;47.332;11.180;2023-05-17T07:15:59;3.90;99.90
11284;DHT22;5698;47.332;11.180;2023-05-17T07:18:26;3.90;99.90
11284;DHT22;5698;47.332;11.180;2023-05-17T07:20:53;3.90;99.90
11284;DHT22;5698;47.332;11.180;2023-05-17T07:23:20;3.90;99.90
11284;DHT22;5698;47.332;11.180;2023-05-17T07:25:47;4.00;99.90
11284;DHT22;5698;47.332;11.180;2023-05-17T07:28:16;4.00;99.90
11284;DHT22;5698;47.332;11.180;2023-05-17T07:30:43;3.90;99.90
11284;DHT22;5698;47.332;11.180;2023-05-17T07:33:10;3.90;99.90
11284;DHT22;5698;47.332;11.180;2023-05-17T07:35:37;4.00;99.90
11284;DHT22;5698;47.332;11.180;2023-05-17T07:38:04;3.90;99.90
11284;DHT22;5698;47.332;11.180;2023-05-17T07:40:31;4.00;99.90
11284;DHT22;5698;47.332;11.180;2023-05-17T07:42:58;4.00;99.90
11284;DHT22;5698;47.332;11.180;2023-05-17T07:45:26;4.00;99.90
11284;DHT22;5698;47.332;11.180;2023-05-17T07:47:54;4.00;99.90
11284;DHT22;5698;47.332;11.180;2023-05-17T07:50:21;4.00;99.90
11284;DHT22;5698;47.332;11.180;2023-05-17T07:52:48;4.00;99.90
11284;DHT22;5698;47.332;11.180;2023-05-17T07:55:15;4.00;99.90
11284;DHT22;5698;47.332;11.180;2023-05-17T07:57:42;4.00;99.90
11284;DHT22;5698;47.332;11.180;2023-05-17T08:00:10;4.00;99.90
11284;DHT22;5698;47.332;11.180;2023-05-17T08:02:39;4.00;99.90
11284;DHT22;5698;47.332;11.180;2023-05-17T08:05:07;4.00;99.90
11284;DHT22;5698;47.332;11.180;2023-05-17T08:07:34;4.00;99.90
11284;DHT22;5698;47.332;11.180;2023-05-17T08:10:01;4.00;99.90
11284;DHT22;5698;47.332;11.180;2023-05-17T08:12:28;4.00;99.90
11284;DHT22;5698;47.332;11.180;2023-05-17T08:14:55;4.00;99.90
11284;DHT22;5698;47.332;11.180;2023-05-17T08:17:22;4.00;99.90
11284;DHT22;5698;47.332;11.180;2023-05-17T08:19:50;3.90;99.90
11284;DHT22;5698;47.332;11.180;2023-05-17T08:22:17;4.00;99.90
11284;DHT22;5698;47.332;11.180;2023-05-17T08:24:45;4.00;99.90
11284;DHT22;5698;47.332;11.180;2023-05-17T08:27:12;4.00;99.90
11284;DHT22;5698;47.332;11.180;2023-05-17T08:29:39;4.00;99.90
11284;DHT22;5698;47.332;11.180;2023-05-17T08:32:06;4.00;99.90
11284;DHT22;5698;47.332;11.180;2023-05-17T08:34:33;4.10;99.90
11284;DHT22;5698;47.332;11.180;2023-05-17T08:37:02;4.10;99.90
11284;DHT22;5698;47.332;11.180;2023-05-17T08:39:29;4.20;99.90
11284;DHT22;5698;47.332;11.180;2023-05-17T08:41:57;4.20;99.90
11284;DHT22;5698;47.332;11.180;2023-05-17T08:44:25;4.20;99.90
11284;DHT22;5698;47.332;11.180;2023-05-17T08:46:54;4.10;99.90
11284;DHT22;5698;47.332;11.180;2023-05-17T08:49:24;4.10;99.90
11284;DHT22;5698;47.332;11.180;2023-05-17T08:51:53;4.10;99.90
11284;DHT22;5698;47.332;11.180;2023-05-17T08:54:22;4.10;99.90
11284;DHT22;5698;47.332;11.180;2023-05-17T08:56:53;4.10;99.90
11284;DHT22;5698;47.332;11.180;2023-05-17T08:59:21;4.10;99.90
11284;DHT22;5698;47.332;11.180;2023-05-17T09:01:52;4.10;99.90
11284;DHT22;5698;47.332;11.180;2023-05-17T09:04:20;4.10;99.90
11284;DHT22;5698;47.332;11.180;2023-05-17T09:06:47;4.10;99.90
11284;DHT22;5698;47.332;11.180;2023-05-17T09:09:16;4.10;99.90
11284;DHT22;5698;47.332;11.180;2023-05-17T09:11:45;4.10;99.90
11284;DHT22;5698;47.332;11.180;2023-05-17T09:14:14;4.10;99.90
11284;DHT22;5698;47.332;11.180;2023-05-17T09:16:42;4.20;99.90
11284;DHT22;5698;47.332;11.180;2023-05-17T09:19:15;4.20;99.90
11284;DHT22;5698;47.332;11.180;2023-05-17T09:21:45;4.20;99.90
11284;DHT22;5698;47.332;11.180;2023-05-17T09:24:12;4.10;99.90
11284;DHT22;5698;47.332;11.180;2023-05-17T09:26:40;4.10;99.90
11284;DHT22;5698;47.332;11.180;2023-05-17T09:29:10;4.20;99.90
11284;DHT22;5698;47.332;11.180;2023-05-17T09:31:37;4.20;99.90
11284;DHT22;5698;47.332;11.180;2023-05-17T09:34:04;4.20;99.90
11284;DHT22;5698;47.332;11.180;2023-05-17T09:36:34;4.20;99.90
11284;DHT22;5698;47.332;11.180;2023-05-17T09:39:03;4.10;99.90
11284;DHT22;5698;47.332;11.180;2023-05-17T09:41:31;4.10;99.90
11284;DHT22;5698;47.332;11.180;2023-05-17T09:43:59;4.20;99.90
11284;DHT22;5698;47.332;11.180;2023-05-17T09:46:32;4.20;99.90
11284;DHT22;5698;47.332;11.180;2023-05-17T09:49:01;4.10;99.90
11284;DHT22;5698;47.332;11.180;2023-05-17T09:51:35;4.20;99.90
11284;DHT22;5698;47.332;11.180;2023-05-17T09:54:02;4.20;99.90
11284;DHT22;5698;47.332;11.180;2023-05-17T09:56:30;4.20;99.90
11284;DHT22;5698;47.332;11.180;2023-05-17T09:58:57;4.20;99.90
11284;DHT22;5698;47.332;11.180;2023-05-17T10:01:28;4.20;99.90
11284;DHT22;5698;47.332;11.180;2023-05-17T10:03:58;4.20;99.90
11284;DHT22;5698;47.332;11.180;2023-05-17T10:06:28;4.30;99.90
11284;DHT22;5698;47.332;11.180;2023-05-17T10:08:56;4.40;99.90
11284;DHT22;5698;47.332;11.180;2023-05-17T10:11:26;4.30;99.90
11284;DHT22;5698;47.332;11.180;2023-05-17T10:14:06;4.40;99.90
11284;DHT22;5698;47.332;11.180;2023-05-17T10:16:37;4.40;99.90
11284;DHT22;5698;47.332;11.180;2023-05-17T10:19:05;4.50;99.90
11284;DHT22;5698;47.332;11.180;2023-05-17T10:21:33;4.50;99.90
11284;DHT22;5698;47.332;11.180;2023-05-17T10:24:01;4.60;99.90
11284;DHT22;5698;47.332;11.180;2023-05-17T10:26:28;4.60;99.90
11284;DHT22;5698;47.332;11.180;2023-05-17T10:28:57;4.70;99.90
11284;DHT22;5698;47.332;11.180;2023-05-17T10:31:28;4.80;99.90
11284;DHT22;5698;47.332;11.180;2023-05-17T10:33:58;4.80;99.90
11284;DHT22;5698;47.332;11.180;2023-05-17T10:36:25;4.90;99.90
11284;DHT22;5698;47.332;11.180;2023-05-17T10:38:52;4.90;99.90
11284;DHT22;5698;47.332;11.180;2023-05-17T10:41:22;5.00;99.90
11284;DHT22;5698;47.332;11.180;2023-05-17T10:43:50;5.10;99.90
11284;DHT22;5698;47.332;11.180;2023-05-17T10:46:19;5.20;99.90
11284;DHT22;5698;47.332;11.180;2023-05-17T10:48:50;5.40;99.90
11284;DHT22;5698;47.332;11.180;2023-05-17T10:51:22;5.50;99.90
11284;DHT22;5698;47.332;11.180;2023-05-17T10:54:17;5.70;99.90
11284;DHT22;5698;47.332;11.180;2023-05-17T10:56:47;5.90;99.90
11284;DHT22;5698;47.332;11.180;2023-05-17T10:59:20;5.90;99.90
11284;DHT22;5698;47.332;11.180;2023-05-17T11:01:53;5.90;99.90
11284;DHT22;5698;47.332;11.180;2023-05-17T11:04:21;5.90;99.90
11284;DHT22;5698;47.332;11.180;2023-05-17T11:07:19;6.00;99.90
11284;DHT22;5698;47.332;11.180;2023-05-17T11:09:50;6.00;99.90
11284;DHT22;5698;47.332;11.180;2023-05-17T11:12:28;6.10;99.90
11284;DHT22;5698;47.332;11.180;2023-05-17T11:14:56;6.30;99.90
11284;DHT22;5698;47.332;11.180;2023-05-17T11:17:25;6.40;99.90
11284;DHT22;5698;47.332;11.180;2023-05-17T11:20:03;6.40;99.90
11284;DHT22;5698;47.332;11.180;2023-05-17T11:22:36;6.50;99.90
11284;DHT22;5698;47.332;11.180;2023-05-17T11:25:09;6.60;99.90
11284;DHT22;5698;47.332;11.180;2023-05-17T11:27:38;6.60;99.90
11284;DHT22;5698;47.332;11.180;2023-05-17T11:30:15;6.60;99.90
11284;DHT22;5698;47.332;11.180;2023-05-17T11:32:48;6.50;99.90
11284;DHT22;5698;47.332;11.180;2023-05-17T11:35:16;6.50;99.90
11284;DHT22;5698;47.332;11.180;2023-05-17T11:37:45;6.60;99.90
11284;DHT22;5698;47.332;11.180;2023-05-17T11:40:12;6.60;99.90
11284;DHT22;5698;47.332;11.180;2023-05-17T11:42:40;6.70;99.90
11284;DHT22;5698;47.332;11.180;2023-05-17T11:45:08;6.70;99.90
11284;DHT22;5698;47.332;11.180;2023-05-17T11:47:38;6.70;99.90
11284;DHT22;5698;47.332;11.180;2023-05-17T11:50:07;6.70;99.90
11284;DHT22;5698;47.332;11.180;2023-05-17T11:52:34;6.70;99.90
11284;DHT22;5698;47.332;11.180;2023-05-17T11:55:03;6.70;99.90
11284;DHT22;5698;47.332;11.180;2023-05-17T11:57:31;6.60;99.90
11284;DHT22;5698;47.332;11.180;2023-05-17T11:59:59;6.70;99.90
11284;DHT22;5698;47.332;11.180;2023-05-17T12:02:27;6.70;99.90
11284;DHT22;5698;47.332;11.180;2023-05-17T12:04:55;6.60;99.90
11284;DHT22;5698;47.332;11.180;2023-05-17T12:07:22;6.70;99.90
11284;DHT22;5698;47.332;11.180;2023-05-17T12:09:50;6.70;99.90
11284;DHT22;5698;47.332;11.180;2023-05-17T12:12:19;6.70;99.90
11284;DHT22;5698;47.332;11.180;2023-05-17T12:14:47;6.60;99.90
11284;DHT22;5698;47.332;11.180;2023-05-17T12:17:22;6.50;99.90
11284;DHT22;5698;47.332;11.180;2023-05-17T12:19:53;6.50;99.90
11284;DHT22;5698;47.332;11.180;2023-05-17T12:22:20;6.40;99.90
11284;DHT22;5698;47.332;11.180;2023-05-17T12:24:47;6.40;99.90
11284;DHT22;5698;47.332;11.180;2023-05-17T12:27:25;6.40;99.90
11284;DHT22;5698;47.332;11.180;2023-05-17T12:29:52;6.30;99.90
11284;DHT22;5698;47.332;11.180;2023-05-17T12:32:19;6.30;99.90
11284;DHT22;5698;47.332;11.180;2023-05-17T12:34:46;6.20;99.90
11284;DHT22;5698;47.332;11.180;2023-05-17T12:37:14;6.20;99.90
11284;DHT22;5698;47.332;11.180;2023-05-17T12:39:41;6.10;99.90
11284;DHT22;5698;47.332;11.180;2023-05-17T12:42:09;6.10;99.90
11284;DHT22;5698;47.332;11.180;2023-05-17T12:44:38;6.00;99.90
11284;DHT22;5698;47.332;11.180;2023-05-17T12:47:05;6.00;99.90
11284;DHT22;5698;47.332;11.180;2023-05-17T12:49:37;6.00;99.90
11284;DHT22;5698;47.332;11.180;2023-05-17T12:52:05;5.90;99.90
11284;DHT22;5698;47.332;11.180;2023-05-17T12:54:32;6.00;99.90
11284;DHT22;5698;47.332;11.180;2023-05-17T12:57:08;6.00;99.90
11284;DHT22;5698;47.332;11.180;2023-05-17T12:59:47;6.00;99.90
11284;DHT22;5698;47.332;11.180;2023-05-17T13:02:14;6.00;99.90
11284;DHT22;5698;47.332;11.180;2023-05-17T13:04:42;6.00;99.90
11284;DHT22;5698;47.332;11.180;2023-05-17T13:07:09;6.10;99.90
11284;DHT22;5698;47.332;11.180;2023-05-17T13:09:45;6.10;99.90
11284;DHT22;5698;47.332;11.180;2023-05-17T13:12:18;6.10;99.90
11284;DHT22;5698;47.332;11.180;2023-05-17T13:14:50;6.10;99.90
11284;DHT22;5698;47.332;11.180;2023-05-17T13:17:18;6.00;99.90
11284;DHT22;5698;47.332;11.180;2023-05-17T13:19:49;6.00;99.90
11284;DHT22;5698;47.332;11.180;2023-05-17T13:22:16;6.00;99.90
11284;DHT22;5698;47.332;11.180;2023-05-17T13:24:43;6.10;99.90
11284;DHT22;5698;47.332;11.180;2023-05-17T13:27:11;6.10;99.90
11284;DHT22;5698;47.332;11.180;2023-05-17T13:29:39;6.20;99.90
11284;DHT22;5698;47.332;11.180;2023-05-17T13:32:10;6.30;99.90
11284;DHT22;5698;47.332;11.180;2023-05-17T13:34:37;6.30;99.90
11284;DHT22;5698;47.332;11.180;2023-05-17T13:37:04;6.30;99.90
11284;DHT22;5698;47.332;11.180;2023-05-17T13:39:31;6.30;99.90
11284;DHT22;5698;47.332;11.180;2023-05-17T13:41:58;6.40;99.90
11284;DHT22;5698;47.332;11.180;2023-05-17T13:44:25;6.40;99.90
11284;DHT22;5698;47.332;11.180;2023-05-17T13:46:52;6.40;99.90
11284;DHT22;5698;47.332;11.180;2023-05-17T13:49:21;6.40;99.90
11284;DHT22;5698;47.332;11.180;2023-05-17T13:51:48;6.50;99.90
11284;DHT22;5698;47.332;11.180;2023-05-17T13:54:15;6.50;99.90
11284;DHT22;5698;47.332;11.180;2023-05-17T13:56:44;6.50;99.90
11284;DHT22;5698;47.332;11.180;2023-05-17T13:59:12;6.60;99.90
11284;DHT22;5698;47.332;11.180;2023-05-17T14:01:39;6.60;99.90
11284;DHT22;5698;47.332;11.180;2023-05-17T14:04:06;6.70;99.90
11284;DHT22;5698;47.332;11.180;2023-05-17T14:06:34;6.70;99.90
11284;DHT22;5698;47.332;11.180;2023-05-17T14:09:01;6.70;99.90
11284;DHT22;5698;47.332;11.180;2023-05-17T14:11:29;6.70;99.90
11284;DHT22;5698;47.332;11.180;2023-05-17T14:13:56;6.80;99.90
11284;DHT22;5698;47.332;11.180;2023-05-17T14:16:23;6.80;99.90
11284;DHT22;5698;47.332;11.180;2023-05-17T14:18:50;6.80;99.90
11284;DHT22;5698;47.332;11.180;2023-05-17T14:21:17;6.80;99.90
11284;DHT22;5698;47.332;11.180;2023-05-17T14:23:45;6.80;99.90
11284;DHT22;5698;47.332;11.180;2023-05-17T14:26:12;6.80;99.90
11284;DHT22;5698;47.332;11.180;2023-05-17T14:28:39;6.90;99.90
11284;DHT22;5698;47.332;11.180;2023-05-17T14:31:07;6.80;99.90
11284;DHT22;5698;47.332;11.180;2023-05-17T14:33:34;6.80;99.90
11284;DHT22;5698;47.332;11.180;2023-05-17T14:36:01;6.80;99.90
11284;DHT22;5698;47.332;11.180;2023-05-17T14:38:28;6.70;99.90
11284;DHT22;5698;47.332;11.180;2023-05-17T14:40:57;6.60;99.90
11284;DHT22;5698;47.332;11.180;2023-05-17T14:43:25;6.60;99.90
11284;DHT22;5698;47.332;11.180;2023-05-17T14:45:52;6.60;99.90
11284;DHT22;5698;47.332;11.180;2023-05-17T14:48:19;6.60;99.90
11284;DHT22;5698;47.332;11.180;2023-05-17T14:50:46;6.50;99.90
11284;DHT22;5698;47.332;11.180;2023-05-17T14:53:13;6.60;99.90
11284;DHT22;5698;47.332;11.180;2023-05-17T14:55:40;6.60;99.90
11284;DHT22;5698;47.332;11.180;2023-05-17T14:58:08;6.60;99.90
11284;DHT22;5698;47.332;11.180;2023-05-17T15:00:37;6.60;99.90
11284;DHT22;5698;47.332;11.180;2023-05-17T15:03:06;6.70;99.90
11284;DHT22;5698;47.332;11.180;2023-05-17T15:05:33;6.70;99.90
11284;DHT22;5698;47.332;11.180;2023-05-17T15:08:00;6.80;99.90
11284;DHT22;5698;47.332;11.180;2023-05-17T15:10:27;6.70;99.90
11284;DHT22;5698;47.332;11.180;2023-05-17T15:12:54;6.80;99.90
11284;DHT22;5698;47.332;11.180;2023-05-17T15:15:22;6.80;99.90
11284;DHT22;5698;47.332;11.180;2023-05-17T15:17:49;6.80;99.90
11284;DHT22;5698;47.332;11.180;2023-05-17T15:20:17;6.80;99.90
11284;DHT22;5698;47.332;11.180;2023-05-17T15:22:44;6.80;99.90
11284;DHT22;5698;47.332;11.180;2023-05-17T15:25:12;6.70;99.90
11284;DHT22;5698;47.332;11.180;2023-05-17T15:27:39;6.60;99.90
11284;DHT22;5698;47.332;11.180;2023-05-17T15:30:07;6.60;99.90
11284;DHT22;5698;47.332;11.180;2023-05-17T15:32:36;6.70;99.90
11284;DHT22;5698;47.332;11.180;2023-05-17T15:35:03;6.70;99.90
11284;DHT22;5698;47.332;11.180;2023-05-17T15:37:30;6.60;99.90
11284;DHT22;5698;47.332;11.180;2023-05-17T15:40:06;6.60;99.90
11284;DHT22;5698;47.332;11.180;2023-05-17T15:42:33;6.60;99.90
11284;DHT22;5698;47.332;11.180;2023-05-17T15:45:00;6.60;99.90
11284;DHT22;5698;47.332;11.180;2023-05-17T15:47:27;6.60;99.90
11284;DHT22;5698;47.332;11.180;2023-05-17T15:49:56;6.70;99.90
11284;DHT22;5698;47.332;11.180;2023-05-17T15:52:23;6.70;99.90